Time;durP1;ratioP1;P1;durP2;ratioP2;P2;SDS_P1;SDS_P2;PMS_P1;PMS_P2;Temp;Humidity;BMP_temperature;BMP_pressure;BME280_temperature;BME280_humidity;BME280_pressure;Samples;Min_cycle;Max_cycle;Signal;HPM_P1;HPM_P2
2023/10/19 00:00:22;;;;;;;7.80;1.70;;;;;;;18.74;72.31;98267.00;4970551;28;20033;-80
2023/10/19 00:02:54;;;;;;;7.63;1.67;;;;;;;18.71;72.24;98268.06;4970333;28;20042;-79
2023/10/19 00:05:20;;;;;;;7.03;1.80;;;;;;;18.70;72.28;98276.19;4953165;28;20083;-80
2023/10/19 00:07:46;;;;;;;8.25;1.67;;;;;;;18.70;72.64;98270.84;4970716;28;20030;-79
2023/10/19 00:10:15;;;;;;;7.63;1.73;;;;;;;18.70;72.24;98266.38;4970696;28;20053;-80
2023/10/19 00:12:41;;;;;;;7.50;1.90;;;;;;;18.69;72.16;98259.31;4970533;28;20113;-79
2023/10/19 00:15:09;;;;;;;7.45;1.80;;;;;;;18.69;72.39;98238.00;4969157;28;20129;-79
2023/10/19 00:17:34;;;;;;;8.80;1.90;;;;;;;18.72;72.36;98224.44;4970142;28;20101;-80
2023/10/19 00:20:28;;;;;;;7.50;2.20;;;;;;;18.72;72.07;98210.28;4970609;28;20038;-78
2023/10/19 00:22:45;;;;;;;7.10;2.10;;;;;;;18.71;72.11;98203.25;4970144;28;20380;-79
2023/10/19 00:25:13;;;;;;;9.43;2.10;;;;;;;18.72;72.12;98204.94;4970469;28;20081;-79
2023/10/19 00:27:39;;;;;;;7.18;2.42;;;;;;;18.73;71.97;98196.81;4970230;28;20046;-82
2023/10/19 00:30:06;;;;;;;8.80;2.05;;;;;;;18.71;72.51;98188.09;4970600;28;20031;-79
2023/10/19 00:32:33;;;;;;;5.63;1.73;;;;;;;18.70;72.24;98180.22;4970197;28;20059;-79
2023/10/19 00:35:07;;;;;;;9.38;2.35;;;;;;;18.65;72.64;98173.38;4970667;28;20030;-79
2023/10/19 00:37:39;;;;;;;7.80;2.33;;;;;;;18.63;72.92;98174.47;4970297;28;20061;-79
2023/10/19 00:40:15;;;;;;;7.50;2.20;;;;;;;18.61;73.05;98174.56;4970372;28;20033;-79
2023/10/19 00:42:46;;;;;;;7.55;2.10;;;;;;;18.56;73.13;98163.38;4970592;28;20035;-82
2023/10/19 00:45:13;;;;;;;5.88;2.03;;;;;;;18.54;73.48;98135.97;4984100;28;20105;-79
2023/10/19 00:47:42;;;;;;;8.80;2.25;;;;;;;18.54;73.40;98096.00;4989349;28;20479;-78
2023/10/19 00:50:17;;;;;;;7.33;2.43;;;;;;;18.57;73.29;98089.63;4988283;28;20050;-79
2023/10/19 00:52:52;;;;;;;8.70;2.33;;;;;;;18.58;73.45;98100.16;4988296;28;20057;-80
2023/10/19 00:55:25;;;;;;;9.20;2.10;;;;;;;18.58;73.56;98108.16;4972842;28;20045;-78
2023/10/19 00:57:52;;;;;;;6.82;1.92;;;;;;;18.63;73.59;98115.81;4970090;28;20037;-82
2023/10/19 01:00:31;;;;;;;7.47;1.90;;;;;;;18.65;73.65;98109.41;4970108;28;20034;-79
2023/10/19 01:02:59;;;;;;;7.30;1.73;;;;;;;18.70;73.68;98108.22;4969997;28;20033;-79
2023/10/19 01:05:32;;;;;;;9.85;2.13;;;;;;;18.72;73.93;98103.63;4970046;28;20400;-80
2023/10/19 01:07:59;;;;;;;9.32;2.08;;;;;;;18.73;73.45;98106.19;4970115;28;20039;-79
2023/10/19 01:10:24;;;;;;;8.13;1.90;;;;;;;18.76;73.44;98111.28;4970126;28;20049;-80
2023/10/19 01:12:51;;;;;;;6.23;1.87;;;;;;;18.80;73.58;98114.59;4970084;28;20030;-78
2023/10/19 01:15:39;;;;;;;9.63;2.00;;;;;;;18.83;73.52;98119.69;4970296;28;20105;-78
2023/10/19 01:18:05;;;;;;;7.28;1.75;;;;;;;18.86;73.63;98137.28;4969184;28;20394;-82
2023/10/19 01:26:07;;;;;;;9.98;2.00;;;;;;;18.84;74.77;98137.41;4969689;28;20132;-79
2023/10/19 01:33:55;;;;;;;6.03;1.50;;;;;;;18.86;73.97;98111.47;4969623;28;20082;-81
2023/10/19 01:38:47;;;;;;;7.50;1.80;;;;;;;18.89;74.15;98111.22;4972186;28;20093;-78
2023/10/19 01:41:13;;;;;;;7.78;1.85;;;;;;;18.91;74.12;98111.97;4955958;28;20023;-78
2023/10/19 01:43:43;;;;;;;5.72;1.80;;;;;;;18.91;73.96;98092.47;4957034;28;20046;-78
2023/10/19 01:46:12;;;;;;;6.32;1.77;;;;;;;18.93;73.93;98094.06;4992662;28;20059;-79
2023/10/19 01:48:42;;;;;;;7.07;1.90;;;;;;;18.93;73.98;98086.06;4974561;28;20026;-81
2023/10/19 01:51:10;;;;;;;6.80;2.05;;;;;;;18.96;73.92;98084.13;4974950;28;20041;-78
2023/10/19 01:53:44;;;;;;;6.97;1.92;;;;;;;18.91;74.39;98082.63;4971867;28;20031;-79
2023/10/19 01:56:15;;;;;;;7.45;1.75;;;;;;;18.94;74.38;98081.56;4973091;28;20039;-80
2023/10/19 01:58:42;;;;;;;7.32;1.55;;;;;;;18.96;74.15;98066.31;4972997;28;20058;-82
2023/10/19 02:01:18;;;;;;;6.80;2.10;;;;;;;18.99;73.93;98054.59;4972978;28;20399;-80
2023/10/19 02:03:44;;;;;;;8.25;2.60;;;;;;;18.98;74.39;98039.53;4972762;28;20038;-79
2023/10/19 02:06:17;;;;;;;7.93;2.00;;;;;;;18.94;74.42;98023.75;4972659;28;20402;-80
2023/10/19 02:08:53;;;;;;;7.63;2.00;;;;;;;18.98;74.25;98012.88;4972527;28;20033;-79
2023/10/19 02:11:22;;;;;;;9.25;1.98;;;;;;;18.98;74.32;98013.72;4972688;28;20510;-79
2023/10/19 02:14:00;;;;;;;10.73;2.65;;;;;;;18.99;74.16;97998.59;4972636;28;20031;-79
2023/10/19 02:16:29;;;;;;;8.63;2.67;;;;;;;18.96;74.72;98002.28;4972559;28;20395;-79
2023/10/19 02:18:55;;;;;;;12.87;3.00;;;;;;;18.97;75.16;97992.50;4972053;28;20094;-79
2023/10/19 02:21:26;;;;;;;10.60;2.85;;;;;;;18.94;75.30;97981.09;4972581;28;20031;-79
2023/10/19 02:23:52;;;;;;;13.23;3.00;;;;;;;18.98;75.19;97972.84;4972422;28;20031;-79
2023/10/19 02:26:19;;;;;;;10.87;2.60;;;;;;;19.02;75.23;97961.00;4972245;28;20410;-80
2023/10/19 02:28:46;;;;;;;9.75;2.53;;;;;;;19.01;75.41;97959.31;4972408;28;20031;-81
2023/10/19 02:31:15;;;;;;;10.40;2.70;;;;;;;19.07;75.29;97958.84;4955092;28;20026;-80
2023/10/19 02:34:00;;;;;;;11.13;2.75;;;;;;;19.04;75.90;97949.25;4972030;28;20031;-81
2023/10/19 02:36:30;;;;;;;12.27;3.25;;;;;;;19.06;75.61;97951.81;4972632;28;20050;-79
2023/10/19 02:39:13;;;;;;;11.60;3.40;;;;;;;19.12;75.71;97947.81;4972201;28;20065;-78
2023/10/19 02:41:44;;;;;;;11.73;3.63;;;;;;;19.08;76.59;97933.88;4972158;28;20055;-79
2023/10/19 02:44:19;;;;;;;11.10;2.95;;;;;;;19.07;76.64;97932.16;4977647;28;20201;-79
2023/10/19 02:46:58;;;;;;;10.75;3.15;;;;;;;19.12;76.08;97924.66;4974407;28;20414;-79
2023/10/19 02:49:25;;;;;;;13.68;4.35;;;;;;;19.15;76.30;97927.06;4972623;28;20049;-80
2023/10/19 02:51:52;;;;;;;13.20;3.60;;;;;;;19.18;76.47;97924.19;4974110;28;20124;-80
2023/10/19 02:54:24;;;;;;;16.60;3.70;;;;;;;19.17;76.75;97926.97;4982788;28;20122;-79
2023/10/19 02:56:56;;;;;;;20.85;3.50;;;;;;;19.24;76.29;97938.03;4971587;28;20468;-78
2023/10/19 02:59:23;;;;;;;17.42;4.03;;;;;;;19.22;76.79;97935.47;4972113;28;20089;-80
2023/10/19 03:04:37;;;;;;;15.47;3.80;;;;;;;19.28;76.92;97934.16;4971659;28;20120;-79
2023/10/19 03:07:09;;;;;;;20.95;4.30;;;;;;;19.29;76.09;97942.03;4971780;28;20082;-80
2023/10/19 03:09:38;;;;;;;22.38;4.40;;;;;;;19.27;76.86;97935.94;4971834;28;20039;-78
2023/10/19 03:12:05;;;;;;;16.67;4.65;;;;;;;19.28;77.08;97928.81;4964529;28;20031;-80
2023/10/19 03:14:31;;;;;;;15.90;4.73;;;;;;;19.32;76.87;97928.47;4964693;28;20051;-80
2023/10/19 03:16:59;;;;;;;19.30;3.60;;;;;;;19.37;76.32;97912.06;4964536;28;20049;-79
2023/10/19 03:19:25;;;;;;;19.58;3.70;;;;;;;19.38;76.18;97903.09;4971191;28;20038;-79
2023/10/19 03:21:50;;;;;;;17.27;3.60;;;;;;;19.38;76.26;97902.25;4971538;28;20388;-79
2023/10/19 03:27:23;;;;;;;20.90;4.13;;;;;;;19.38;76.83;97913.78;4971504;28;20038;-79
2023/10/19 03:29:54;;;;;;;14.68;3.83;;;;;;;19.39;76.66;97907.47;4971260;28;20058;-79
2023/10/19 03:32:26;;;;;;;19.57;3.90;;;;;;;19.40;76.66;97906.50;4970924;28;20569;-79
2023/10/19 03:34:55;;;;;;;22.35;4.07;;;;;;;19.44;76.28;97901.78;4971517;28;20468;-80
2023/10/19 03:37:22;;;;;;;16.98;3.75;;;;;;;19.46;76.26;97906.03;4971269;28;20401;-80
2023/10/19 03:39:48;;;;;;;19.67;3.75;;;;;;;19.42;77.01;97899.25;4971168;28;20029;-80
2023/10/19 03:42:14;;;;;;;21.08;4.65;;;;;;;19.46;76.41;97908.69;4970918;28;20027;-81
2023/10/19 03:47:19;;;;;;;18.33;3.70;;;;;;;19.47;76.34;97902.38;4990352;28;20084;-84
2023/10/19 03:49:48;;;;;;;20.07;3.93;;;;;;;19.47;77.04;97891.72;4990540;28;20041;-78
2023/10/19 03:54:41;;;;;;;23.95;3.95;;;;;;;19.50;76.38;97890.59;4978633;28;20122;-81
2023/10/19 03:57:25;;;;;;;21.65;4.22;;;;;;;19.50;76.26;97887.94;4970806;28;20054;-78
2023/10/19 03:59:57;;;;;;;23.17;4.30;;;;;;;19.50;76.26;97906.63;4970835;28;20039;-80
2023/10/19 04:02:28;;;;;;;19.65;4.00;;;;;;;19.51;76.32;97902.97;4970589;28;20078;-80
2023/10/19 04:04:55;;;;;;;19.70;3.35;;;;;;;19.50;76.16;97910.16;4970616;28;20070;-80
2023/10/19 04:07:21;;;;;;;20.48;4.43;;;;;;;19.48;76.59;97903.22;4968350;28;20031;-80
2023/10/19 04:09:57;;;;;;;19.10;4.03;;;;;;;19.46;76.65;97906.03;4966062;28;20511;-80
2023/10/19 04:12:30;;;;;;;17.67;3.67;;;;;;;19.49;76.59;97911.13;4970778;28;20022;-80
2023/10/19 04:17:38;;;;;;;21.15;3.92;;;;;;;19.48;76.19;97889.88;4970293;28;20117;-79
2023/10/19 04:22:42;;;;;;;17.67;3.53;;;;;;;19.47;76.59;97877.50;4970696;28;20037;-79
2023/10/19 04:25:08;;;;;;;17.55;3.20;;;;;;;19.43;76.28;97874.25;4971597;28;20407;-79
2023/10/19 04:27:35;;;;;;;15.48;3.13;;;;;;;19.45;76.38;97866.97;4950290;29;20154;-80
2023/10/19 04:30:02;;;;;;;18.50;3.63;;;;;;;19.43;76.47;97852.91;4951655;29;20023;-79
2023/10/19 04:32:28;;;;;;;17.63;3.13;;;;;;;19.40;76.22;97850.44;4951152;29;20038;-81
2023/10/19 04:34:53;;;;;;;19.35;3.15;;;;;;;19.41;75.88;97852.16;4951289;29;20039;-80
2023/10/19 04:37:19;;;;;;;19.00;3.23;;;;;;;19.39;76.22;97856.75;4934039;29;20444;-78
2023/10/19 04:39:45;;;;;;;19.20;3.57;;;;;;;19.34;76.03;97853.59;4951183;29;20031;-81
2023/10/19 04:42:12;;;;;;;17.40;2.80;;;;;;;19.36;76.06;97849.00;4951184;29;20640;-81
2023/10/19 04:44:37;;;;;;;15.77;3.10;;;;;;;19.35;75.96;97853.50;4969134;28;20026;-79
2023/10/19 04:47:02;;;;;;;15.13;2.83;;;;;;;19.35;76.20;97857.97;4972349;28;20081;-79
2023/10/19 04:49:28;;;;;;;17.65;3.47;;;;;;;19.32;76.26;97853.75;4989569;28;20033;-81
2023/10/19 04:51:53;;;;;;;19.53;3.37;;;;;;;19.32;76.35;97847.53;4989741;28;20110;-81
2023/10/19 04:54:19;;;;;;;16.97;2.93;;;;;;;19.30;76.17;97854.81;4980745;28;20570;-78
2023/10/19 04:56:44;;;;;;;22.63;3.08;;;;;;;19.32;76.13;97860.88;4970106;28;20102;-79
2023/10/19 04:59:09;;;;;;;17.77;2.63;;;;;;;19.31;76.16;97854.72;4970097;28;20055;-80
2023/10/19 05:01:35;;;;;;;22.07;3.23;;;;;;;19.32;76.45;97847.53;4970232;28;20038;-81
2023/10/19 05:04:01;;;;;;;17.23;3.30;;;;;;;19.30;75.91;97831.69;4946918;29;20388;-80
2023/10/19 05:06:26;;;;;;;16.88;3.30;;;;;;;19.29;76.16;97821.13;4968727;28;20046;-81
2023/10/19 05:08:54;;;;;;;14.13;3.00;;;;;;;19.30;76.35;97818.34;4970058;28;20058;-80
2023/10/19 05:11:20;;;;;;;19.27;2.90;;;;;;;19.33;75.79;97831.44;4969980;28;20030;-80
2023/10/19 05:13:45;;;;;;;19.27;3.13;;;;;;;19.29;76.27;97819.31;4972248;28;20110;-80
2023/10/19 05:16:10;;;;;;;14.70;3.13;;;;;;;19.30;75.78;97825.47;4956282;28;20054;-80
2023/10/19 05:18:36;;;;;;;19.47;3.57;;;;;;;19.27;76.36;97820.38;4973331;28;20069;-81
2023/10/19 05:21:01;;;;;;;14.73;3.35;;;;;;;19.28;75.67;97814.09;4973939;28;20034;-80
2023/10/19 05:23:27;;;;;;;15.20;2.63;;;;;;;19.28;75.95;97806.91;4973869;28;20667;-80
2023/10/19 05:25:59;;;;;;;16.40;2.50;;;;;;;19.27;75.65;97804.38;4973608;28;20398;-81
2023/10/19 05:28:25;;;;;;;22.00;3.30;;;;;;;19.20;76.03;97799.53;4972935;28;20058;-80
2023/10/19 05:30:51;;;;;;;13.85;2.70;;;;;;;19.21;75.82;97795.91;4967518;28;20070;-87
2023/10/19 05:33:20;;;;;;;12.23;2.80;;;;;;;19.20;75.84;97794.19;4972038;28;20042;-82
2023/10/19 05:35:49;;;;;;;21.90;2.88;;;;;;;19.19;76.01;97789.84;4973177;28;20526;-84
2023/10/19 05:38:15;;;;;;;14.13;3.15;;;;;;;19.18;75.90;97772.13;4972902;28;20085;-84
2023/10/19 05:40:43;;;;;;;14.52;2.70;;;;;;;19.20;76.12;97764.84;4973250;28;20435;-81
2023/10/19 05:43:09;;;;;;;14.40;2.88;;;;;;;19.20;75.39;97751.53;4973285;28;20035;-79
2023/10/19 05:45:36;;;;;;;14.60;3.20;;;;;;;19.18;75.68;97740.13;4989841;28;20049;-88
2023/10/19 05:48:03;;;;;;;20.15;3.78;;;;;;;19.11;76.23;97728.22;4991911;28;20092;-80
2023/10/19 05:50:29;;;;;;;14.68;2.80;;;;;;;19.11;75.70;97728.22;4958837;28;20027;-82
2023/10/19 05:52:54;;;;;;;12.55;2.50;;;;;;;19.06;76.13;97706.41;4945846;29;20543;-79
2023/10/19 05:55:21;;;;;;;12.17;2.40;;;;;;;19.04;76.15;97703.03;4970872;28;20033;-79
2023/10/19 05:57:47;;;;;;;15.70;3.20;;;;;;;19.01;75.96;97684.63;4972942;28;20030;-81
2023/10/19 06:00:13;;;;;;;18.07;3.17;;;;;;;18.98;76.25;97692.81;4969748;28;20031;-81
2023/10/19 06:02:46;;;;;;;12.05;2.85;;;;;;;18.95;76.33;97701.91;4969356;28;20094;-81
2023/10/19 06:05:15;;;;;;;16.33;2.97;;;;;;;18.96;75.93;97700.09;4961568;28;20507;-80
2023/10/19 06:07:50;;;;;;;12.77;2.67;;;;;;;18.94;75.99;97697.56;4972856;28;20065;-80
2023/10/19 06:10:17;;;;;;;13.88;2.67;;;;;;;18.92;75.96;97695.00;4975334;28;20035;-84
2023/10/19 06:12:51;;;;;;;14.65;2.85;;;;;;;18.91;76.02;97692.47;4958001;28;20065;-82
2023/10/19 06:15:20;;;;;;;14.25;3.30;;;;;;;18.88;76.35;97677.56;4968503;28;20196;-82
2023/10/19 06:17:46;;;;;;;13.93;2.83;;;;;;;18.88;75.97;97677.56;4966706;28;20042;-87
2023/10/19 06:20:19;;;;;;;11.37;2.87;;;;;;;18.87;75.95;97683.84;4962742;28;20023;-81
2023/10/19 06:22:50;;;;;;;14.98;2.80;;;;;;;18.88;75.78;97690.88;4957228;28;20027;-81
2023/10/19 06:25:17;;;;;;;16.63;2.85;;;;;;;18.88;76.10;97693.53;4954365;28;20039;-81
2023/10/19 06:27:43;;;;;;;13.00;3.00;;;;;;;18.86;75.93;97695.50;4971560;28;20646;-82
2023/10/19 06:30:10;;;;;;;16.75;3.17;;;;;;;18.83;76.38;97689.56;4958834;28;20114;-82
2023/10/19 06:32:36;;;;;;;16.35;3.20;;;;;;;18.80;76.37;97701.31;4951406;29;20027;-82
2023/10/19 06:35:01;;;;;;;13.55;2.97;;;;;;;18.83;76.37;97700.25;4964471;28;20036;-81
2023/10/19 06:37:27;;;;;;;12.77;2.83;;;;;;;18.86;76.26;97716.00;4953749;28;20031;-83
2023/10/19 06:39:52;;;;;;;11.23;2.97;;;;;;;18.85;76.30;97731.13;4971083;28;20023;-81
2023/10/19 06:42:18;;;;;;;14.57;3.03;;;;;;;18.85;76.31;97741.78;4970800;28;20027;-80
2023/10/19 06:44:43;;;;;;;13.25;3.05;;;;;;;18.87;76.43;97742.50;4980673;28;20072;-86
2023/10/19 06:47:10;;;;;;;12.40;2.77;;;;;;;18.88;76.36;97744.22;4990442;28;20022;-80
2023/10/19 06:49:35;;;;;;;16.60;3.35;;;;;;;18.89;76.58;97748.56;4991449;28;20028;-83
2023/10/19 06:52:01;;;;;;;16.20;3.57;;;;;;;18.92;76.31;97748.31;4991745;28;20022;-80
2023/10/19 06:54:29;;;;;;;14.32;2.55;;;;;;;18.96;75.98;97753.44;4981152;28;20023;-84
2023/10/19 06:56:54;;;;;;;17.87;3.20;;;;;;;18.98;76.43;97747.03;4971693;28;20041;-80
2023/10/19 06:59:20;;;;;;;21.75;3.33;;;;;;;18.94;76.51;97733.09;4971805;28;20038;-80
2023/10/19 07:01:46;;;;;;;22.17;4.10;;;;;;;18.89;76.86;97732.56;4971537;28;20027;-86
2023/10/19 07:04:12;;;;;;;11.48;2.60;;;;;;;18.96;76.60;97724.09;4971142;28;20018;-82
2023/10/19 07:06:38;;;;;;;11.88;2.88;;;;;;;18.96;76.58;97727.59;4971260;28;20043;-83
2023/10/19 07:09:05;;;;;;;12.43;3.08;;;;;;;18.98;76.33;97720.38;4971773;28;20031;-80
2023/10/19 07:11:32;;;;;;;13.40;2.90;;;;;;;18.99;76.46;97724.72;4971663;28;20513;-84
2023/10/19 07:13:57;;;;;;;14.20;3.15;;;;;;;19.01;76.27;97724.63;4969081;28;20075;-80
2023/10/19 07:16:23;;;;;;;13.90;3.27;;;;;;;19.03;76.36;97728.00;4952474;29;20035;-80
2023/10/19 07:18:49;;;;;;;19.20;3.35;;;;;;;19.03;76.59;97738.66;4934345;29;20034;-80
2023/10/19 07:21:14;;;;;;;14.17;3.27;;;;;;;19.05;76.63;97731.41;4952005;29;20035;-82
2023/10/19 07:23:40;;;;;;;18.25;3.53;;;;;;;19.05;76.61;97732.25;4934800;29;20027;-81
2023/10/19 07:26:06;;;;;;;15.77;3.33;;;;;;;19.09;76.44;97727.50;4951963;29;20518;-86
2023/10/19 07:28:32;;;;;;;18.35;3.08;;;;;;;19.13;76.29;97726.28;4952113;29;20232;-85
2023/10/19 07:30:59;;;;;;;12.02;2.83;;;;;;;19.19;76.43;97736.47;4952455;29;20023;-81
2023/10/19 07:33:26;;;;;;;21.27;3.43;;;;;;;19.21;76.15;97734.53;4951806;29;20023;-85
2023/10/19 07:35:54;;;;;;;14.40;3.15;;;;;;;19.29;75.81;97727.72;4951434;28;20023;-81
2023/10/19 07:38:21;;;;;;;16.35;3.13;;;;;;;19.33;75.76;97730.03;4952076;29;20498;-80
2023/10/19 07:40:47;;;;;;;15.75;3.40;;;;;;;19.39;75.42;97723.31;4951899;29;20031;-81
2023/10/19 07:43:12;;;;;;;14.38;3.05;;;;;;;19.47;75.52;97720.03;4952097;29;20110;-82
2023/10/19 07:45:38;;;;;;;17.63;3.43;;;;;;;19.50;75.09;97720.63;4951906;29;20136;-83
2023/10/19 07:48:10;;;;;;;20.73;3.00;;;;;;;19.54;74.79;97725.72;4951484;29;20090;-81
2023/10/19 07:50:37;;;;;;;15.57;3.05;;;;;;;19.59;74.91;97743.06;4952044;29;20220;-81
2023/10/19 07:53:03;;;;;;;10.05;2.50;;;;;;;19.61;74.68;97759.81;4951523;28;20491;-87
2023/10/19 07:55:30;;;;;;;14.55;3.20;;;;;;;19.60;74.67;97774.13;4951647;29;20026;-85
2023/10/19 07:57:59;;;;;;;15.75;2.72;;;;;;;19.60;75.26;97784.81;4951331;28;20618;-80
2023/10/19 08:00:26;;;;;;;14.73;2.87;;;;;;;19.57;74.94;97794.88;4951594;29;20043;-81
2023/10/19 08:02:55;;;;;;;11.45;2.60;;;;;;;19.60;74.91;97795.47;4951574;28;20049;-83
2023/10/19 08:05:21;;;;;;;14.43;2.60;;;;;;;19.68;74.60;97781.50;4970670;28;20069;-80
2023/10/19 08:07:47;;;;;;;13.45;3.10;;;;;;;19.76;74.57;97771.03;4970836;28;20042;-81
2023/10/19 08:10:15;;;;;;;8.63;2.30;;;;;;;19.85;74.43;97768.56;4970827;28;20050;-81
2023/10/19 08:12:41;;;;;;;14.40;2.40;;;;;;;19.90;73.99;97785.09;4970806;28;20112;-82
2023/10/19 08:15:15;;;;;;;12.68;2.65;;;;;;;19.93;73.51;97785.69;4959003;28;20116;-81
2023/10/19 08:17:42;;;;;;;8.85;2.13;;;;;;;19.97;73.32;97790.78;4952287;29;20528;-81
2023/10/19 08:20:09;;;;;;;10.70;2.00;;;;;;;19.97;73.31;97772.09;4952015;29;20038;-80
2023/10/19 08:22:37;;;;;;;7.15;1.90;;;;;;;19.96;73.31;97736.53;4951366;29;20036;-85
2023/10/19 08:25:04;;;;;;;18.10;2.60;;;;;;;19.96;72.97;97733.00;4951268;29;20516;-81
2023/10/19 08:27:31;;;;;;;16.63;2.60;;;;;;;19.97;73.20;97738.22;4951053;29;20023;-82
2023/10/19 08:29:56;;;;;;;10.15;2.15;;;;;;;19.97;73.04;97743.56;4951137;29;20039;-81
2023/10/19 08:32:22;;;;;;;10.47;2.10;;;;;;;19.96;73.08;97730.31;4950934;29;20103;-81
2023/10/19 08:34:47;;;;;;;12.15;2.15;;;;;;;19.92;73.13;97732.44;4950999;29;20102;-84
2023/10/19 08:37:13;;;;;;;15.27;2.00;;;;;;;19.88;73.37;97747.81;4933960;29;20039;-80
2023/10/19 08:39:38;;;;;;;10.57;2.37;;;;;;;19.88;73.12;97738.94;4950987;29;20526;-80
2023/10/19 08:42:04;;;;;;;12.93;2.53;;;;;;;19.88;73.06;97744.28;4951160;29;20031;-81
2023/10/19 08:44:31;;;;;;;12.88;2.30;;;;;;;19.84;73.35;97743.72;4950881;29;20039;-81
2023/10/19 08:46:59;;;;;;;8.90;1.83;;;;;;;19.86;73.45;97740.88;4952494;28;20031;-82
2023/10/19 08:49:28;;;;;;;11.80;1.85;;;;;;;19.80;73.38;97724.41;4954729;28;20391;-81
2023/10/19 08:51:55;;;;;;;10.65;2.10;;;;;;;19.79;73.30;97701.34;4954936;29;20031;-80
2023/10/19 08:54:20;;;;;;;11.93;2.97;;;;;;;19.84;73.38;97681.44;4945676;28;20398;-80
2023/10/19 08:56:47;;;;;;;8.70;2.10;;;;;;;19.83;73.16;97679.72;4935564;29;20634;-81
2023/10/19 08:59:15;;;;;;;10.45;2.42;;;;;;;19.84;73.06;97690.28;4935665;29;20035;-80
2023/10/19 09:01:43;;;;;;;15.33;2.50;;;;;;;19.87;73.00;97690.03;4935718;29;20506;-81
2023/10/19 09:04:10;;;;;;;11.23;2.53;;;;;;;19.88;73.05;97699.75;4956931;28;20023;-81
2023/10/19 09:06:42;;;;;;;11.88;2.35;;;;;;;19.91;72.77;97714.72;4973829;28;20047;-83
2023/10/19 09:09:16;;;;;;;13.55;2.28;;;;;;;19.88;72.95;97712.22;4973796;28;20023;-81
2023/10/19 09:11:43;;;;;;;10.38;2.40;;;;;;;19.92;73.02;97719.91;4973668;28;20049;-82
2023/10/19 09:14:08;;;;;;;12.27;2.20;;;;;;;19.91;72.51;97718.22;4969500;28;20106;-82
2023/10/19 09:16:33;;;;;;;11.20;2.10;;;;;;;19.93;72.82;97715.41;4937031;29;20130;-84
2023/10/19 09:18:59;;;;;;;9.27;2.30;;;;;;;19.93;73.13;97716.25;4954008;29;20035;-84
2023/10/19 09:21:24;;;;;;;14.13;2.60;;;;;;;19.95;72.80;97716.13;4954311;29;20038;-81
2023/10/19 09:23:54;;;;;;;12.17;2.10;;;;;;;19.95;72.83;97710.78;4954354;29;20488;-81
2023/10/19 09:26:21;;;;;;;11.77;2.90;;;;;;;20.00;72.74;97703.22;4953973;29;20074;-81
2023/10/19 09:28:48;;;;;;;16.08;2.53;;;;;;;19.99;72.59;97701.53;4936980;29;20098;-80
2023/10/19 09:31:16;;;;;;;11.13;2.03;;;;;;;19.97;72.89;97683.94;4954248;29;20086;-82
2023/10/19 09:33:45;;;;;;;13.45;2.33;;;;;;;19.92;72.63;97681.69;4953818;29;20027;-80
2023/10/19 09:36:15;;;;;;;14.00;2.70;;;;;;;19.90;72.93;97691.63;4954291;29;20023;-80
2023/10/19 09:38:43;;;;;;;16.67;2.92;;;;;;;19.91;72.94;97690.66;4936720;29;20424;-85
2023/10/19 09:41:12;;;;;;;12.82;2.20;;;;;;;19.89;73.13;97681.88;4954664;29;20038;-80
2023/10/19 09:43:42;;;;;;;9.85;2.15;;;;;;;19.88;72.81;97672.16;4954299;29;20314;-81
2023/10/19 09:46:09;;;;;;;12.63;2.05;;;;;;;19.88;72.99;97674.84;4953659;28;20062;-81
2023/10/19 09:48:41;;;;;;;11.53;2.43;;;;;;;19.87;72.78;97674.00;4953596;29;20131;-81
2023/10/19 09:51:08;;;;;;;11.20;2.85;;;;;;;19.90;72.89;97662.25;4953831;28;20118;-81
2023/10/19 09:53:36;;;;;;;9.88;2.15;;;;;;;19.93;72.85;97656.66;4951164;29;20020;-86
2023/10/19 09:56:06;;;;;;;15.23;2.28;;;;;;;19.96;72.93;97636.84;4934798;29;20088;-86
2023/10/19 09:58:37;;;;;;;13.32;2.08;;;;;;;20.01;72.86;97642.63;4934277;29;20040;-85
2023/10/19 10:01:03;;;;;;;6.73;2.07;;;;;;;20.09;72.27;97632.16;4934801;29;20027;-80
2023/10/19 10:03:46;;;;;;;10.55;2.30;;;;;;;20.18;72.37;97627.84;4945552;28;20369;-83
2023/10/19 10:06:16;;;;;;;7.20;2.00;;;;;;;20.27;72.25;97629.72;4972676;28;20049;-85
2023/10/19 10:08:45;;;;;;;14.37;2.33;;;;;;;20.30;72.00;97624.09;4972822;28;20070;-82
2023/10/19 10:11:28;;;;;;;13.07;2.85;;;;;;;20.34;71.96;97620.16;4973137;28;20510;-80
2023/10/19 10:13:55;;;;;;;10.73;2.10;;;;;;;20.43;71.61;97623.03;4953493;28;20039;-82
2023/10/19 10:16:26;;;;;;;10.80;2.45;;;;;;;20.46;71.62;97622.78;4953611;29;20091;-85
2023/10/19 10:18:58;;;;;;;10.48;2.30;;;;;;;20.46;71.31;97609.41;4953134;29;20070;-83
2023/10/19 10:21:24;;;;;;;11.37;2.33;;;;;;;20.43;71.37;97604.34;4953526;29;20031;-83
2023/10/19 10:23:52;;;;;;;13.45;2.20;;;;;;;20.46;71.28;97598.72;4953429;29;20027;-82
2023/10/19 10:26:20;;;;;;;16.10;2.50;;;;;;;20.52;70.91;97587.47;4953062;29;20087;-86
2023/10/19 10:28:48;;;;;;;13.93;2.13;;;;;;;20.61;70.91;97581.28;4953254;29;20465;-81
2023/10/19 10:31:21;;;;;;;8.60;2.15;;;;;;;20.68;70.72;97578.09;4953234;29;20039;-84
2023/10/19 10:33:48;;;;;;;15.40;2.70;;;;;;;20.77;70.47;97586.16;4952951;29;20027;-80
2023/10/19 10:36:16;;;;;;;12.30;2.15;;;;;;;20.90;70.41;97580.56;4953144;29;20043;-81
2023/10/19 10:38:44;;;;;;;12.17;2.10;;;;;;;20.99;69.95;97583.38;4953081;29;20035;-81
2023/10/19 10:41:10;;;;;;;14.07;2.60;;;;;;;21.04;69.69;97575.78;4935757;28;20050;-87
2023/10/19 10:43:48;;;;;;;14.97;2.40;;;;;;;;;;4953411;29;20051;-84
2023/10/19 10:46:13;;;;;;;7.80;2.47;;;;;;;21.27;69.72;97572.84;4935459;29;20640;-82
2023/10/19 10:48:41;;;;;;;10.20;2.30;;;;;;;21.42;68.61;97574.13;4952452;29;20531;-86
2023/10/19 10:51:17;;;;;;;14.37;2.60;;;;;;;21.47;68.15;97585.25;4953019;29;20279;-84
2023/10/19 10:53:42;;;;;;;8.98;1.95;;;;;;;21.58;68.11;97572.66;4948988;29;20507;-86
2023/10/19 10:56:08;;;;;;;11.13;2.73;;;;;;;21.59;67.67;97547.63;4916701;29;20075;-84
2023/10/19 10:58:34;;;;;;;10.50;2.53;;;;;;;21.69;67.85;97543.09;4933556;29;20049;-80
2023/10/19 11:01:00;;;;;;;11.05;2.33;;;;;;;21.73;67.45;97527.59;4933583;29;20387;-84
2023/10/19 11:03:29;;;;;;;13.23;2.72;;;;;;;21.80;66.97;97537.56;4943619;28;20066;-85
2023/10/19 11:05:55;;;;;;;9.20;2.28;;;;;;;21.90;67.11;97532.19;4971784;28;20078;-82
2023/10/19 11:08:24;;;;;;;11.63;2.10;;;;;;;21.96;66.96;97522.72;4971683;28;20081;-82
2023/10/19 11:10:50;;;;;;;10.32;2.30;;;;;;;22.05;66.25;97513.78;4971100;28;20415;-87
2023/10/19 11:13:23;;;;;;;14.07;2.70;;;;;;;22.11;65.75;97525.75;4972051;28;20035;-85
2023/10/19 11:15:53;;;;;;;11.33;2.63;;;;;;;22.19;65.43;97533.06;4954388;28;20031;-81
2023/10/19 11:18:35;;;;;;;9.45;2.28;;;;;;;22.25;64.70;97523.59;4934768;29;20035;-86
2023/10/19 11:21:05;;;;;;;11.90;2.30;;;;;;;22.60;64.70;97517.50;4952365;29;20059;-80
2023/10/19 11:23:46;;;;;;;12.55;2.10;;;;;;;22.97;63.85;97501.44;4935204;29;20484;-84
2023/10/19 11:26:13;;;;;;;10.77;2.08;;;;;;;23.37;63.40;97500.94;4951964;29;20031;-82
2023/10/19 11:28:43;;;;;;;12.37;2.03;;;;;;;23.73;62.90;97489.28;4952404;29;20058;-82
2023/10/19 11:31:16;;;;;;;11.98;2.53;;;;;;;23.92;61.54;97463.19;4952398;29;20038;-80
2023/10/19 11:33:43;;;;;;;13.38;2.25;;;;;;;24.22;61.59;97450.22;4951916;29;20042;-84
2023/10/19 11:36:09;;;;;;;12.45;1.98;;;;;;;24.48;61.13;97435.88;4952322;29;20030;-86
2023/10/19 11:38:35;;;;;;;13.57;2.25;;;;;;;24.67;59.14;97415.88;4951818;28;20042;-82
2023/10/19 11:41:01;;;;;;;13.33;1.93;;;;;;;24.92;59.05;97424.81;4952088;29;20124;-84
2023/10/19 11:43:28;;;;;;;10.95;1.90;;;;;;;25.14;59.52;97422.47;4951889;28;20035;-83
2023/10/19 11:45:53;;;;;;;10.20;1.93;;;;;;;25.20;57.51;97410.16;4932936;29;20028;-84
2023/10/19 11:48:19;;;;;;;8.05;1.80;;;;;;;25.26;56.09;97403.28;4932608;29;20044;-81
2023/10/19 11:50:45;;;;;;;10.17;2.13;;;;;;;25.26;56.44;97404.09;4932895;29;20399;-82
2023/10/19 11:53:10;;;;;;;11.60;2.23;;;;;;;25.27;55.74;97402.25;4932870;29;20023;-82
2023/10/19 11:55:35;;;;;;;8.33;1.70;;;;;;;25.20;56.49;97392.19;4951600;29;20317;-81
2023/10/19 11:58:01;;;;;;;10.83;2.10;;;;;;;25.10;56.66;97386.13;4951551;29;20047;-83
2023/10/19 12:00:33;;;;;;;8.87;1.67;;;;;;;25.05;56.78;97386.63;4951653;29;20046;-81